Etusivu
METAR-TAF:

METAR-TAF

Lentoasemat :

Kelowna, Brittiläinen Kolumbia, Kanada

Leveyspiiri: 49-58N, Pituuspiiri: 119-23W, korkeus merenpinnasta: 430 m

Tämänhetkinen sää

Tämä raportti tehtiin 48 minuuttia sitten, kello 18.00 UTC
tyyntä
Lämpötila 6°C
Kosteus 65%
Ilmanpaine 1026 hPa
Näkyvyys: 14.5 km
selkeää

METAR: CYLW 191800Z AUTO 00000KT 9SM CLR 06/M00 A3031 RMK SLP282

Aika: 11:48 (18:48 UTC)

Sääennuste

Tämä raportti tehtiin 10 minuuttia sitten, kello 18.38 UTC
Ennuste voimassa 19. päivästä klo 19 UTC - 20. päivään klo 07 UTC
Tuuli 3 kn eri suunnista
Näkyvyys: 10 km
selkeää
Tulossa
19. päivästä klo 19 UTC - 19. päivään klo 21 UTC
Tuuli 7 kn pohjoisen/luoteesta

TAF: CYLW 191838Z 1919/2007 VRB03KT P6SM SKC BECMG 1919/1921 34007KT RMK FCST BASED ON AUTO OBS. NXT FCST BY 200100Z

Säähavainnot ja -ennusteet yli 4000 lentoasemalta (METAR- ja TAF-raportit).

Käytössä olevat sääasemat on merkitty karttaan keltaisilla ja punaisilla pisteillä.

Aseta hiiri pisteen päälle nähdäksesi sääaseman nimen.

Klikkaa sitten nähdäksesi säähavainnot ja -ennusteet.

Kartan vaihtaminen: klikkaa mustalla rastilla varustettuja vihreitä pisteitä, niin voit zoomata sisään; viivalla varustettua vihreää pistettä, niin voit zoomata ulos tai vihreitä nuolia, niin pääset viereisille kartoille.


METAR-TAF: